createdAt,value
2019-06-26T00:04:19.835Z,63.95
2019-06-26T00:09:24.135Z,56.30
2019-06-26T00:14:28.446Z,54.15
2019-06-26T00:19:32.758Z,55.83
2019-06-26T00:24:37.146Z,51.77
2019-06-26T00:29:41.451Z,51.33
2019-06-26T00:34:45.794Z,49.65
2019-06-26T00:39:50.086Z,48.78
2019-06-26T00:44:54.402Z,49.00
2019-06-26T00:49:58.720Z,43.78
2019-06-26T00:55:03.185Z,66.15
2019-06-26T01:00:10.064Z,49.98
2019-06-26T01:05:16.287Z,47.88
2019-06-26T01:10:20.920Z,45.23
2019-06-26T01:15:25.230Z,42.83
2019-06-26T01:20:29.537Z,38.85
2019-06-26T01:25:33.844Z,39.83
2019-06-26T01:30:38.149Z,40.10
2019-06-26T01:35:42.458Z,45.48
2019-06-26T01:40:46.941Z,44.05
2019-06-26T01:45:51.262Z,40.12
2019-06-26T01:50:55.648Z,47.83
2019-06-26T01:55:59.978Z,40.65
2019-06-26T02:01:04.299Z,41.25
2019-06-26T02:06:08.612Z,41.88
2019-06-26T02:11:12.916Z,47.03
2019-06-26T02:16:17.216Z,46.02
2019-06-26T02:21:21.592Z,50.85
2019-06-26T02:26:25.903Z,54.70
2019-06-26T02:31:30.202Z,50.73
2019-06-26T02:36:34.517Z,58.25
2019-06-26T02:41:38.818Z,59.05
2019-06-26T02:46:43.136Z,62.25
2019-06-26T02:51:47.437Z,57.20
2019-06-26T02:56:51.740Z,55.38
2019-06-26T03:01:56.056Z,59.65
2019-06-26T03:07:00.374Z,57.08
2019-06-26T03:12:04.740Z,55.08
2019-06-26T03:17:09.047Z,54.05
2019-06-26T03:22:13.364Z,60.85
2019-06-26T03:27:17.680Z,56.77
2019-06-26T03:32:21.983Z,58.20
2019-06-26T03:37:26.976Z,59.05
2019-06-26T03:42:31.260Z,57.70
2019-06-26T03:47:35.588Z,61.13
2019-06-26T03:52:39.892Z,64.67
2019-06-26T03:57:44.202Z,68.02
2019-06-26T04:02:48.504Z,71.00
2019-06-26T04:07:52.810Z,74.15
2019-06-26T04:12:57.114Z,73.65
2019-06-26T04:18:01.418Z,71.90
2019-06-26T04:23:05.718Z,74.30
2019-06-26T04:28:10.027Z,76.95
2019-06-26T04:33:14.323Z,79.03
2019-06-26T04:38:18.627Z,87.62
2019-06-26T04:43:22.941Z,92.08
2019-06-26T04:48:27.227Z,96.10
2019-06-26T04:53:31.539Z,92.67
2019-06-26T04:58:35.836Z,89.95
2019-06-26T05:03:40.142Z,96.67
2019-06-26T05:08:44.456Z,90.10
2019-06-26T05:13:48.759Z,100.65
2019-06-26T05:18:53.082Z,93.07
2019-06-26T05:23:57.385Z,96.08
2019-06-26T05:29:01.694Z,95.45
2019-06-26T05:34:06.000Z,99.07
2019-06-26T05:39:10.482Z,93.07
2019-06-26T05:44:14.795Z,98.00
2019-06-26T05:49:19.103Z,90.50
2019-06-26T05:54:23.437Z,92.70
2019-06-26T05:59:27.746Z,90.40
2019-06-26T06:04:32.050Z,82.57
2019-06-26T06:09:36.516Z,77.65
2019-06-26T06:14:40.986Z,73.37
2019-06-26T06:19:45.574Z,68.35
2019-06-26T06:24:50.082Z,64.53
2019-06-26T06:29:54.393Z,55.40
2019-06-26T06:34:58.702Z,67.03
2019-06-26T06:40:03.288Z,64.37
2019-06-26T06:45:08.301Z,61.13
2019-06-26T06:50:12.883Z,58.42
2019-06-26T06:55:17.439Z,58.68
2019-06-26T07:00:22.163Z,53.23
2019-06-26T07:05:26.485Z,52.55
2019-06-26T07:10:30.798Z,53.23
2019-06-26T07:15:35.105Z,49.98
2019-06-26T07:20:39.416Z,47.80
2019-06-26T07:25:43.731Z,51.77
2019-06-26T07:30:48.079Z,52.60
2019-06-26T07:35:52.391Z,60.75
2019-06-26T07:40:56.717Z,54.85
2019-06-26T07:46:01.564Z,101.97
2019-06-26T07:51:05.874Z,62.20
2019-06-26T07:56:10.249Z,49.27
2019-06-26T08:01:14.567Z,55.30
2019-06-26T08:06:18.873Z,57.05
2019-06-26T08:11:23.295Z,48.73
2019-06-26T08:16:27.611Z,59.35
2019-06-26T08:21:31.930Z,53.70
2019-06-26T08:26:36.248Z,55.23
2019-06-26T08:31:40.546Z,51.05
2019-06-26T08:36:44.860Z,50.48
2019-06-26T08:41:49.169Z,48.10
2019-06-26T08:46:53.478Z,52.70
2019-06-26T08:51:58.512Z,54.60
2019-06-26T08:57:02.808Z,53.20
2019-06-26T09:02:07.383Z,54.20
2019-06-26T09:07:11.690Z,54.40
2019-06-26T09:12:16.003Z,54.95
2019-06-26T09:17:20.419Z,59.18
2019-06-26T09:22:25.514Z,54.33
2019-06-26T09:27:29.818Z,53.13
2019-06-26T09:32:34.130Z,52.83
2019-06-26T09:37:38.446Z,55.75
2019-06-26T09:42:42.754Z,56.45
2019-06-26T09:47:47.058Z,56.30
2019-06-26T09:52:51.375Z,50.03
2019-06-26T09:57:55.688Z,86.72
2019-06-26T10:03:00.062Z,81.25
2019-06-26T10:08:04.476Z,55.48
2019-06-26T10:13:08.792Z,63.17
2019-06-26T10:18:13.210Z,48.05
2019-06-26T10:23:17.507Z,45.65
2019-06-26T10:28:21.920Z,45.60
2019-06-26T10:33:26.442Z,54.15
2019-06-26T10:38:30.741Z,42.45
2019-06-26T10:43:35.056Z,49.65
2019-06-26T10:48:39.389Z,44.15
2019-06-26T10:53:43.689Z,50.92
2019-06-26T10:58:48.185Z,48.95
2019-06-26T11:03:52.684Z,65.12
2019-06-26T11:08:57.013Z,62.60
2019-06-26T11:14:01.311Z,61.77
2019-06-26T11:19:05.870Z,56.55
2019-06-26T11:24:12.535Z,59.80
2019-06-26T11:29:16.464Z,56.50
2019-06-26T11:34:20.780Z,60.17
2019-06-26T11:39:25.280Z,56.28
2019-06-26T11:44:29.574Z,50.12
2019-06-26T11:49:33.897Z,58.58
2019-06-26T11:54:38.210Z,73.37
2019-06-26T11:59:42.510Z,71.00
2019-06-26T12:04:46.812Z,72.30
2019-06-26T12:09:51.806Z,65.50
2019-06-26T12:14:56.166Z,67.85
2019-06-26T12:20:17.025Z,63.02
2019-06-26T12:25:07.591Z,57.90
2019-06-26T12:30:12.435Z,58.50
2019-06-26T12:35:17.017Z,55.65
2019-06-26T12:40:22.222Z,44.40
2019-06-26T12:45:26.530Z,47.38
2019-06-26T12:50:35.932Z,40.40
2019-06-26T12:55:36.868Z,44.10
2019-06-26T13:00:41.243Z,37.30
2019-06-26T13:05:45.555Z,30.88
2019-06-26T13:10:50.590Z,28.60
2019-06-26T13:15:55.047Z,26.45
2019-06-26T13:20:59.415Z,28.85
2019-06-26T13:26:03.696Z,25.72
2019-06-26T13:31:08.018Z,22.60
2019-06-26T13:36:12.315Z,31.75
2019-06-26T13:41:16.640Z,31.02
2019-06-26T13:46:20.961Z,31.25
2019-06-26T13:51:27.089Z,28.55
2019-06-26T13:56:31.665Z,30.07
2019-06-26T14:01:35.980Z,31.57
2019-06-26T14:06:40.287Z,33.02
2019-06-26T14:11:44.593Z,28.32
2019-06-26T14:16:48.906Z,30.90
2019-06-26T14:21:53.218Z,30.20
2019-06-26T14:26:57.544Z,26.70
2019-06-26T14:32:01.871Z,23.87
2019-06-26T14:37:06.159Z,25.60
2019-06-26T14:42:10.489Z,23.83
2019-06-26T14:47:14.798Z,22.27
2019-06-26T14:52:19.118Z,21.45
2019-06-26T14:57:25.978Z,20.60
2019-06-26T15:02:31.951Z,23.20
2019-06-26T15:07:35.816Z,19.03
2019-06-26T15:12:40.063Z,20.48
2019-06-26T15:17:45.986Z,18.07
2019-06-26T15:22:50.275Z,14.15
2019-06-26T15:27:54.584Z,19.15
2019-06-26T15:32:58.894Z,15.18
2019-06-26T15:38:04.004Z,17.90
2019-06-26T15:43:08.322Z,12.35
2019-06-26T15:48:12.644Z,13.55
2019-06-26T15:53:17.010Z,11.12
2019-06-26T15:58:21.331Z,10.03
2019-06-26T16:03:25.808Z,9.30
2019-06-26T16:08:30.149Z,10.58
2019-06-26T16:13:34.531Z,9.33
2019-06-26T16:18:43.342Z,7.75
2019-06-26T16:23:47.642Z,9.90
2019-06-26T16:28:51.999Z,9.18
2019-06-26T16:33:56.307Z,11.85
2019-06-26T16:39:00.614Z,9.55
2019-06-26T16:44:06.030Z,11.95
2019-06-26T16:49:10.341Z,12.47
2019-06-26T16:54:14.826Z,8.55
2019-06-26T16:59:19.165Z,14.53
2019-06-26T17:04:23.458Z,10.85
2019-06-26T17:09:27.799Z,10.23
2019-06-26T17:14:32.191Z,7.30
2019-06-26T17:19:36.493Z,7.00
2019-06-26T17:24:40.795Z,6.40
2019-06-26T17:29:45.112Z,6.33
2019-06-26T17:34:49.487Z,10.30
2019-06-26T17:39:53.810Z,11.57
2019-06-26T17:44:58.282Z,8.08
2019-06-26T17:50:02.615Z,8.15
2019-06-26T17:55:10.351Z,8.48
2019-06-26T18:00:15.298Z,14.65
2019-06-26T18:05:19.575Z,9.93
2019-06-26T18:10:23.890Z,11.73
2019-06-26T18:15:28.193Z,13.38
2019-06-26T18:20:32.506Z,15.80
2019-06-26T18:25:36.818Z,10.70
2019-06-26T18:30:41.125Z,8.25
2019-06-26T18:35:46.963Z,8.70
2019-06-26T18:40:51.265Z,10.72
2019-06-26T18:45:55.575Z,10.98
2019-06-26T18:50:59.882Z,7.70
2019-06-26T18:56:04.358Z,9.20
2019-06-26T19:01:08.671Z,11.30
2019-06-26T19:06:12.981Z,28.80
2019-06-26T19:11:17.919Z,16.17
2019-06-26T19:16:22.229Z,11.93
2019-06-26T19:21:26.534Z,10.70
2019-06-26T19:26:30.857Z,9.13
2019-06-26T19:31:35.173Z,26.42
2019-06-26T19:36:49.671Z,30.97
2019-06-26T19:41:45.528Z,28.70
2019-06-26T19:46:49.835Z,26.30
2019-06-26T19:51:54.150Z,48.33
2019-06-26T19:56:58.710Z,14.25
2019-06-26T20:02:03.080Z,10.58
2019-06-26T20:07:07.346Z,10.23
2019-06-26T20:12:11.654Z,33.48
2019-06-26T20:17:16.035Z,38.20
2019-06-26T20:22:20.338Z,13.08
2019-06-26T20:27:24.912Z,18.73
2019-06-26T20:32:29.228Z,13.18
2019-06-26T20:37:33.528Z,12.05
2019-06-26T20:42:37.835Z,25.43
2019-06-26T20:47:42.145Z,17.75
2019-06-26T20:52:46.451Z,16.80
2019-06-26T20:57:50.766Z,14.30
2019-06-26T21:02:55.066Z,17.12
2019-06-26T21:07:59.700Z,10.18
2019-06-26T21:13:04.267Z,12.70
2019-06-26T21:18:08.626Z,23.55
2019-06-26T21:23:18.787Z,24.27
2019-06-26T21:28:18.969Z,12.43
2019-06-26T21:33:23.281Z,10.93
2019-06-26T21:38:27.574Z,14.28
2019-06-26T21:43:31.882Z,9.78
2019-06-26T21:48:36.190Z,14.80
2019-06-26T21:53:40.497Z,12.13
2019-06-26T21:58:45.557Z,10.58
2019-06-26T22:03:49.850Z,9.00
2019-06-26T22:08:54.186Z,12.13
2019-06-26T22:13:58.488Z,11.08
2019-06-26T22:19:02.795Z,7.97
2019-06-26T22:24:07.106Z,11.65
2019-06-26T22:29:11.436Z,9.48
2019-06-26T22:34:15.718Z,7.65
2019-06-26T22:39:20.022Z,9.63
2019-06-26T22:44:24.335Z,9.35
2019-06-26T22:49:28.684Z,7.00
2019-06-26T22:54:32.950Z,5.70
2019-06-26T22:59:37.259Z,7.90
2019-06-26T23:04:41.559Z,9.55
2019-06-26T23:09:45.872Z,10.90
2019-06-26T23:14:50.165Z,9.10
2019-06-26T23:19:54.476Z,8.05
2019-06-26T23:24:58.791Z,10.55
2019-06-26T23:30:03.563Z,7.28
2019-06-26T23:35:08.040Z,6.72
2019-06-26T23:40:12.620Z,8.13
2019-06-26T23:45:17.527Z,8.63
2019-06-26T23:50:21.826Z,10.43
2019-06-26T23:55:26.136Z,11.97
